sensor_id;sensor_type;location;lat;lon;timestamp;pressure;altitude;pressure_sealevel;temperature;humidity
51287;BME280;37364;46.974;18.916;2024-01-07T00:00:30;151889.03;;;6.11;100.00
51287;BME280;37364;46.974;18.916;2024-01-07T00:03:03;151867.13;;;6.03;100.00
51287;BME280;37364;46.974;18.916;2024-01-07T00:05:35;151859.38;;;6.00;100.00
51287;BME280;37364;46.974;18.916;2024-01-07T00:08:09;151869.72;;;6.04;100.00
51287;BME280;37364;46.974;18.916;2024-01-07T00:10:39;151868.41;;;6.03;100.00
51287;BME280;37364;46.974;18.916;2024-01-07T00:13:09;151872.28;;;6.05;100.00
51287;BME280;37364;46.974;18.916;2024-01-07T00:15:51;151868.41;;;6.03;100.00
51287;BME280;37364;46.974;18.916;2024-01-07T00:18:22;151873.56;;;6.05;100.00
51287;BME280;37364;46.974;18.916;2024-01-07T00:20:57;151871.00;;;6.04;100.00
51287;BME280;37364;46.974;18.916;2024-01-07T00:24:02;151854.22;;;5.98;100.00
51287;BME280;37364;46.974;18.916;2024-01-07T00:26:49;151860.69;;;6.00;100.00
51287;BME280;37364;46.974;18.916;2024-01-07T00:29:19;151864.53;;;6.02;100.00
51287;BME280;37364;46.974;18.916;2024-01-07T00:31:52;151864.53;;;6.02;100.00
51287;BME280;37364;46.974;18.916;2024-01-07T00:34:24;151860.69;;;6.00;100.00
51287;BME280;37364;46.974;18.916;2024-01-07T00:36:59;151856.81;;;5.99;100.00
51287;BME280;37364;46.974;18.916;2024-01-07T00:39:35;151860.69;;;6.00;100.00
51287;BME280;37364;46.974;18.916;2024-01-07T00:42:15;151850.38;;;5.96;100.00
51287;BME280;37364;46.974;18.916;2024-01-07T00:47:36;151845.16;;;5.94;100.00
51287;BME280;37364;46.974;18.916;2024-01-07T00:50:06;151840.00;;;5.92;100.00
51287;BME280;37364;46.974;18.916;2024-01-07T00:52:37;151837.41;;;5.91;100.00
51287;BME280;37364;46.974;18.916;2024-01-07T00:55:09;151851.66;;;5.97;100.00
51287;BME280;37364;46.974;18.916;2024-01-07T00:57:39;151852.94;;;5.97;100.00
51287;BME280;37364;46.974;18.916;2024-01-07T01:00:11;151838.69;;;5.91;100.00
51287;BME280;37364;46.974;18.916;2024-01-07T01:02:47;151845.16;;;5.94;100.00
51287;BME280;37364;46.974;18.916;2024-01-07T01:05:17;151832.25;;;5.89;100.00
51287;BME280;37364;46.974;18.916;2024-01-07T01:07:47;151850.38;;;5.96;100.00
51287;BME280;37364;46.974;18.916;2024-01-07T01:10:19;151840.00;;;5.92;100.00
51287;BME280;37364;46.974;18.916;2024-01-07T01:13:23;151837.41;;;5.91;100.00
51287;BME280;37364;46.974;18.916;2024-01-07T01:16:02;151828.34;;;5.87;100.00
51287;BME280;37364;46.974;18.916;2024-01-07T01:18:35;151825.81;;;5.86;100.00
51287;BME280;37364;46.974;18.916;2024-01-07T01:21:05;151823.19;;;5.85;100.00
51287;BME280;37364;46.974;18.916;2024-01-07T01:23:35;151829.63;;;5.88;100.00
51287;BME280;37364;46.974;18.916;2024-01-07T01:26:05;151832.25;;;5.89;100.00
51287;BME280;37364;46.974;18.916;2024-01-07T01:28:38;151812.88;;;5.81;100.00
51287;BME280;37364;46.974;18.916;2024-01-07T01:31:08;151820.66;;;5.84;100.00
51287;BME280;37364;46.974;18.916;2024-01-07T01:33:45;151818.03;;;5.83;100.00
51287;BME280;37364;46.974;18.916;2024-01-07T01:39:16;151816.75;;;5.83;100.00
51287;BME280;37364;46.974;18.916;2024-01-07T01:41:52;151801.28;;;5.77;100.00
51287;BME280;37364;46.974;18.916;2024-01-07T01:44:22;151796.13;;;5.74;100.00
51287;BME280;37364;46.974;18.916;2024-01-07T01:46:55;151790.97;;;5.72;100.00
51287;BME280;37364;46.974;18.916;2024-01-07T01:49:30;151796.13;;;5.74;100.00
51287;BME280;37364;46.974;18.916;2024-01-07T01:52:00;151790.97;;;5.72;100.00
51287;BME280;37364;46.974;18.916;2024-01-07T01:54:31;151781.94;;;5.69;100.00
51287;BME280;37364;46.974;18.916;2024-01-07T01:57:01;151787.09;;;5.71;100.00
51287;BME280;37364;46.974;18.916;2024-01-07T01:59:32;151780.59;;;5.68;100.00
51287;BME280;37364;46.974;18.916;2024-01-07T02:02:03;151776.78;;;5.67;100.00
51287;BME280;37364;46.974;18.916;2024-01-07T02:04:36;151772.91;;;5.65;100.00
51287;BME280;37364;46.974;18.916;2024-01-07T02:07:07;151772.91;;;5.65;100.00
51287;BME280;37364;46.974;18.916;2024-01-07T02:09:39;151769.00;;;5.64;100.00
51287;BME280;37364;46.974;18.916;2024-01-07T02:12:11;151776.78;;;5.67;100.00
51287;BME280;37364;46.974;18.916;2024-01-07T02:14:47;151781.94;;;5.69;100.00
51287;BME280;37364;46.974;18.916;2024-01-07T02:17:18;151779.34;;;5.68;100.00
51287;BME280;37364;46.974;18.916;2024-01-07T02:19:51;151789.66;;;5.72;100.00
51287;BME280;37364;46.974;18.916;2024-01-07T02:22:22;151781.94;;;5.69;100.00
51287;BME280;37364;46.974;18.916;2024-01-07T02:24:56;151781.94;;;5.69;100.00
51287;BME280;37364;46.974;18.916;2024-01-07T02:27:32;151779.34;;;5.68;100.00
51287;BME280;37364;46.974;18.916;2024-01-07T02:30:04;151778.06;;;5.67;100.00
51287;BME280;37364;46.974;18.916;2024-01-07T02:32:37;151774.19;;;5.66;100.00
51287;BME280;37364;46.974;18.916;2024-01-07T02:35:08;151776.78;;;5.67;100.00
51287;BME280;37364;46.974;18.916;2024-01-07T02:37:38;151778.06;;;5.67;100.00
51287;BME280;37364;46.974;18.916;2024-01-07T02:40:11;151766.47;;;5.63;100.00
51287;BME280;37364;46.974;18.916;2024-01-07T02:42:41;151772.91;;;5.65;100.00
51287;BME280;37364;46.974;18.916;2024-01-07T02:45:13;151780.59;;;5.68;100.00
51287;BME280;37364;46.974;18.916;2024-01-07T02:47:44;151766.47;;;5.63;100.00
51287;BME280;37364;46.974;18.916;2024-01-07T02:50:14;151767.75;;;5.63;100.00
51287;BME280;37364;46.974;18.916;2024-01-07T02:52:45;151778.06;;;5.67;100.00
51287;BME280;37364;46.974;18.916;2024-01-07T02:55:18;151784.50;;;5.70;100.00
51287;BME280;37364;46.974;18.916;2024-01-07T02:57:51;151780.59;;;5.68;100.00
51287;BME280;37364;46.974;18.916;2024-01-07T03:00:21;151774.19;;;5.66;100.00
51287;BME280;37364;46.974;18.916;2024-01-07T03:02:51;151781.94;;;5.69;100.00
51287;BME280;37364;46.974;18.916;2024-01-07T03:05:21;151780.59;;;5.68;100.00
51287;BME280;37364;46.974;18.916;2024-01-07T03:07:52;151780.59;;;5.68;100.00
51287;BME280;37364;46.974;18.916;2024-01-07T03:10:25;151779.34;;;5.68;100.00
51287;BME280;37364;46.974;18.916;2024-01-07T03:12:55;151784.50;;;5.70;100.00
51287;BME280;37364;46.974;18.916;2024-01-07T03:15:25;151770.28;;;5.64;100.00
51287;BME280;37364;46.974;18.916;2024-01-07T03:17:57;151784.50;;;5.70;100.00
51287;BME280;37364;46.974;18.916;2024-01-07T03:20:27;151781.94;;;5.69;100.00
51287;BME280;37364;46.974;18.916;2024-01-07T03:22:59;151776.78;;;5.67;100.00
51287;BME280;37364;46.974;18.916;2024-01-07T03:25:32;151774.19;;;5.66;100.00
51287;BME280;37364;46.974;18.916;2024-01-07T03:28:03;151776.78;;;5.67;100.00
51287;BME280;37364;46.974;18.916;2024-01-07T03:30:33;151776.78;;;5.67;100.00
51287;BME280;37364;46.974;18.916;2024-01-07T03:33:04;151774.19;;;5.66;100.00
51287;BME280;37364;46.974;18.916;2024-01-07T03:35:34;151776.78;;;5.67;100.00
51287;BME280;37364;46.974;18.916;2024-01-07T03:38:04;151779.34;;;5.68;100.00
51287;BME280;37364;46.974;18.916;2024-01-07T03:40:37;151772.91;;;5.65;100.00
51287;BME280;37364;46.974;18.916;2024-01-07T03:43:07;151778.06;;;5.67;100.00
51287;BME280;37364;46.974;18.916;2024-01-07T03:45:38;151770.28;;;5.64;100.00
51287;BME280;37364;46.974;18.916;2024-01-07T03:48:08;151784.50;;;5.70;100.00
51287;BME280;37364;46.974;18.916;2024-01-07T03:50:40;151789.66;;;5.72;100.00
51287;BME280;37364;46.974;18.916;2024-01-07T03:53:10;151767.75;;;5.63;100.00
51287;BME280;37364;46.974;18.916;2024-01-07T03:55:42;151781.94;;;5.69;100.00
51287;BME280;37364;46.974;18.916;2024-01-07T03:58:13;151783.22;;;5.69;100.00
51287;BME280;37364;46.974;18.916;2024-01-07T04:00:44;151778.06;;;5.67;100.00
51287;BME280;37364;46.974;18.916;2024-01-07T04:03:15;151775.44;;;5.66;100.00
51287;BME280;37364;46.974;18.916;2024-01-07T04:05:45;151781.94;;;5.69;100.00
51287;BME280;37364;46.974;18.916;2024-01-07T04:08:15;151779.34;;;5.68;100.00
51287;BME280;37364;46.974;18.916;2024-01-07T04:10:48;151772.91;;;5.65;100.00
51287;BME280;37364;46.974;18.916;2024-01-07T04:13:18;151792.25;;;5.73;100.00
51287;BME280;37364;46.974;18.916;2024-01-07T04:15:51;151789.66;;;5.72;100.00
51287;BME280;37364;46.974;18.916;2024-01-07T04:18:21;151792.25;;;5.73;100.00
51287;BME280;37364;46.974;18.916;2024-01-07T04:20:54;151783.22;;;5.69;100.00
51287;BME280;37364;46.974;18.916;2024-01-07T04:23:24;151788.38;;;5.71;100.00
51287;BME280;37364;46.974;18.916;2024-01-07T04:25:57;151814.16;;;5.82;100.00
51287;BME280;37364;46.974;18.916;2024-01-07T04:28:27;151794.81;;;5.74;100.00
51287;BME280;37364;46.974;18.916;2024-01-07T04:30:57;151797.41;;;5.75;100.00
51287;BME280;37364;46.974;18.916;2024-01-07T04:33:28;151807.72;;;5.79;100.00
51287;BME280;37364;46.974;18.916;2024-01-07T04:35:59;151805.13;;;5.78;100.00
51287;BME280;37364;46.974;18.916;2024-01-07T04:38:29;151805.13;;;5.78;100.00
51287;BME280;37364;46.974;18.916;2024-01-07T04:41:02;151806.44;;;5.79;100.00
51287;BME280;37364;46.974;18.916;2024-01-07T04:43:34;151802.56;;;5.77;100.00
51287;BME280;37364;46.974;18.916;2024-01-07T04:46:05;151793.53;;;5.73;100.00
51287;BME280;37364;46.974;18.916;2024-01-07T04:48:37;151794.81;;;5.74;100.00
51287;BME280;37364;46.974;18.916;2024-01-07T04:51:07;151807.72;;;5.79;100.00
51287;BME280;37364;46.974;18.916;2024-01-07T04:53:37;151806.44;;;5.79;100.00
51287;BME280;37364;46.974;18.916;2024-01-07T04:56:11;151812.88;;;5.81;100.00
51287;BME280;37364;46.974;18.916;2024-01-07T04:58:41;151815.50;;;5.82;100.00
51287;BME280;37364;46.974;18.916;2024-01-07T05:01:11;151811.59;;;5.81;100.00
51287;BME280;37364;46.974;18.916;2024-01-07T05:03:41;151818.03;;;5.83;100.00
51287;BME280;37364;46.974;18.916;2024-01-07T05:06:12;151824.47;;;5.86;100.00
51287;BME280;37364;46.974;18.916;2024-01-07T05:08:42;151823.19;;;5.85;100.00
51287;BME280;37364;46.974;18.916;2024-01-07T05:11:15;151828.34;;;5.87;100.00
51287;BME280;37364;46.974;18.916;2024-01-07T05:13:45;151820.66;;;5.84;100.00
51287;BME280;37364;46.974;18.916;2024-01-07T05:16:20;151828.34;;;5.87;100.00
51287;BME280;37364;46.974;18.916;2024-01-07T05:18:51;151833.53;;;5.89;100.00
51287;BME280;37364;46.974;18.916;2024-01-07T05:21:21;151828.34;;;5.87;100.00
51287;BME280;37364;46.974;18.916;2024-01-07T05:23:51;151820.66;;;5.84;100.00
51287;BME280;37364;46.974;18.916;2024-01-07T05:26:24;151828.34;;;5.87;100.00
51287;BME280;37364;46.974;18.916;2024-01-07T05:28:54;151840.00;;;5.92;100.00
51287;BME280;37364;46.974;18.916;2024-01-07T05:31:24;151824.47;;;5.86;100.00
51287;BME280;37364;46.974;18.916;2024-01-07T05:33:54;151837.41;;;5.91;100.00
51287;BME280;37364;46.974;18.916;2024-01-07T05:36:26;151834.78;;;5.90;100.00
51287;BME280;37364;46.974;18.916;2024-01-07T05:38:57;151834.78;;;5.90;100.00
51287;BME280;37364;46.974;18.916;2024-01-07T05:41:29;151837.41;;;5.91;100.00
51287;BME280;37364;46.974;18.916;2024-01-07T05:43:59;151841.28;;;5.92;100.00
51287;BME280;37364;46.974;18.916;2024-01-07T05:46:30;151832.25;;;5.89;100.00
51287;BME280;37364;46.974;18.916;2024-01-07T05:49:00;151840.00;;;5.92;100.00
51287;BME280;37364;46.974;18.916;2024-01-07T05:51:31;151851.66;;;5.97;100.00
51287;BME280;37364;46.974;18.916;2024-01-07T05:54:01;151842.56;;;5.93;100.00
51287;BME280;37364;46.974;18.916;2024-01-07T05:56:38;151843.84;;;5.93;100.00
51287;BME280;37364;46.974;18.916;2024-01-07T05:59:08;151851.66;;;5.97;100.00
51287;BME280;37364;46.974;18.916;2024-01-07T06:01:39;151856.81;;;5.99;100.00
51287;BME280;37364;46.974;18.916;2024-01-07T06:04:10;151851.66;;;5.97;100.00
51287;BME280;37364;46.974;18.916;2024-01-07T06:06:40;151851.66;;;5.97;100.00
51287;BME280;37364;46.974;18.916;2024-01-07T06:09:10;151856.81;;;5.99;100.00
51287;BME280;37364;46.974;18.916;2024-01-07T06:11:43;151858.09;;;5.99;100.00
51287;BME280;37364;46.974;18.916;2024-01-07T06:14:13;151861.97;;;6.01;100.00
51287;BME280;37364;46.974;18.916;2024-01-07T06:16:43;151861.97;;;6.01;100.00
51287;BME280;37364;46.974;18.916;2024-01-07T06:19:15;151856.81;;;5.99;100.00
51287;BME280;37364;46.974;18.916;2024-01-07T06:21:45;151858.09;;;5.99;100.00
51287;BME280;37364;46.974;18.916;2024-01-07T06:24:15;151869.72;;;6.04;100.00
51287;BME280;37364;46.974;18.916;2024-01-07T06:26:48;151861.97;;;6.01;100.00
51287;BME280;37364;46.974;18.916;2024-01-07T06:29:18;151860.69;;;6.00;100.00
51287;BME280;37364;46.974;18.916;2024-01-07T06:31:48;151873.56;;;6.05;100.00
51287;BME280;37364;46.974;18.916;2024-01-07T06:34:19;151861.97;;;6.01;100.00
51287;BME280;37364;46.974;18.916;2024-01-07T06:36:49;151874.88;;;6.06;100.00
51287;BME280;37364;46.974;18.916;2024-01-07T06:39:19;151859.38;;;6.00;100.00
51287;BME280;37364;46.974;18.916;2024-01-07T06:41:52;151880.06;;;6.08;100.00
51287;BME280;37364;46.974;18.916;2024-01-07T06:44:22;151868.41;;;6.03;100.00
51287;BME280;37364;46.974;18.916;2024-01-07T06:46:53;151868.41;;;6.03;100.00
51287;BME280;37364;46.974;18.916;2024-01-07T06:49:20;151868.41;;;6.03;100.00
51287;BME280;37364;46.974;18.916;2024-01-07T06:51:50;151873.56;;;6.05;100.00
51287;BME280;37364;46.974;18.916;2024-01-07T06:54:20;151876.16;;;6.06;100.00
51287;BME280;37364;46.974;18.916;2024-01-07T06:56:53;151864.53;;;6.02;100.00
51287;BME280;37364;46.974;18.916;2024-01-07T06:59:23;151874.88;;;6.06;100.00
51287;BME280;37364;46.974;18.916;2024-01-07T07:01:53;151874.88;;;6.06;100.00
51287;BME280;37364;46.974;18.916;2024-01-07T07:04:24;151887.75;;;6.11;100.00
51287;BME280;37364;46.974;18.916;2024-01-07T07:06:54;151886.50;;;6.10;100.00
51287;BME280;37364;46.974;18.916;2024-01-07T07:09:24;151895.53;;;6.14;100.00
51287;BME280;37364;46.974;18.916;2024-01-07T07:11:57;151896.81;;;6.14;100.00
51287;BME280;37364;46.974;18.916;2024-01-07T07:14:27;151904.56;;;6.18;100.00
51287;BME280;37364;46.974;18.916;2024-01-07T07:16:58;151907.13;;;6.19;100.00
51287;BME280;37364;46.974;18.916;2024-01-07T07:19:28;151905.84;;;6.18;100.00
51287;BME280;37364;46.974;18.916;2024-01-07T07:21:58;151904.56;;;6.18;100.00
51287;BME280;37364;46.974;18.916;2024-01-07T07:24:28;151904.56;;;6.18;100.00
51287;BME280;37364;46.974;18.916;2024-01-07T07:27:01;151917.44;;;6.23;100.00
51287;BME280;37364;46.974;18.916;2024-01-07T07:29:31;151916.16;;;6.22;100.00
51287;BME280;37364;46.974;18.916;2024-01-07T07:32:01;151925.22;;;6.26;100.00
51287;BME280;37364;46.974;18.916;2024-01-07T07:34:32;151918.72;;;6.23;100.00
51287;BME280;37364;46.974;18.916;2024-01-07T07:37:02;151926.50;;;6.26;100.00
51287;BME280;37364;46.974;18.916;2024-01-07T07:39:32;151930.38;;;6.28;100.00
51287;BME280;37364;46.974;18.916;2024-01-07T07:42:05;151934.25;;;6.29;100.00
51287;BME280;37364;46.974;18.916;2024-01-07T07:44:37;151920.06;;;6.24;100.00
51287;BME280;37364;46.974;18.916;2024-01-07T07:47:09;151912.28;;;6.21;100.00
51287;BME280;37364;46.974;18.916;2024-01-07T07:49:39;151911.00;;;6.20;100.00
51287;BME280;37364;46.974;18.916;2024-01-07T07:52:09;151913.56;;;6.21;100.00
51287;BME280;37364;46.974;18.916;2024-01-07T07:54:47;151921.34;;;6.24;100.00
51287;BME280;37364;46.974;18.916;2024-01-07T07:57:20;151918.72;;;6.23;100.00
51287;BME280;37364;46.974;18.916;2024-01-07T07:59:52;151932.94;;;6.29;100.00
51287;BME280;37364;46.974;18.916;2024-01-07T08:02:22;151921.34;;;6.24;100.00
51287;BME280;37364;46.974;18.916;2024-01-07T08:04:52;151930.38;;;6.28;100.00
51287;BME280;37364;46.974;18.916;2024-01-07T08:07:23;151930.38;;;6.28;100.00
51287;BME280;37364;46.974;18.916;2024-01-07T08:09:53;151935.53;;;6.30;100.00
51287;BME280;37364;46.974;18.916;2024-01-07T08:12:27;151927.75;;;6.27;100.00
51287;BME280;37364;46.974;18.916;2024-01-07T08:14:57;151916.16;;;6.22;100.00
51287;BME280;37364;46.974;18.916;2024-01-07T08:17:27;151922.59;;;6.25;100.00
51287;BME280;37364;46.974;18.916;2024-01-07T08:19:58;151940.69;;;6.32;100.00
51287;BME280;37364;46.974;18.916;2024-01-07T08:22:30;151935.53;;;6.30;100.00
51287;BME280;37364;46.974;18.916;2024-01-07T08:25:00;151930.38;;;6.28;100.00
51287;BME280;37364;46.974;18.916;2024-01-07T08:27:33;151927.75;;;6.27;100.00
51287;BME280;37364;46.974;18.916;2024-01-07T08:30:05;151934.25;;;6.29;100.00
51287;BME280;37364;46.974;18.916;2024-01-07T08:32:36;151936.81;;;6.30;100.00
51287;BME280;37364;46.974;18.916;2024-01-07T08:35:07;151947.13;;;6.34;100.00
51287;BME280;37364;46.974;18.916;2024-01-07T08:37:49;151929.09;;;6.27;100.00
51287;BME280;37364;46.974;18.916;2024-01-07T08:40:19;151921.34;;;6.24;100.00
51287;BME280;37364;46.974;18.916;2024-01-07T08:42:52;151931.66;;;6.28;100.00
51287;BME280;37364;46.974;18.916;2024-01-07T08:45:23;151911.00;;;6.20;100.00
51287;BME280;37364;46.974;18.916;2024-01-07T08:47:56;151903.25;;;6.17;100.00
51287;BME280;37364;46.974;18.916;2024-01-07T08:50:26;151900.69;;;6.16;100.00
51287;BME280;37364;46.974;18.916;2024-01-07T08:53:06;151880.06;;;6.08;100.00
51287;BME280;37364;46.974;18.916;2024-01-07T08:55:36;151894.25;;;6.13;100.00
51287;BME280;37364;46.974;18.916;2024-01-07T08:58:09;151890.38;;;6.12;100.00
51287;BME280;37364;46.974;18.916;2024-01-07T09:00:39;151887.75;;;6.11;100.00
51287;BME280;37364;46.974;18.916;2024-01-07T09:03:10;151886.50;;;6.10;100.00
51287;BME280;37364;46.974;18.916;2024-01-07T09:05:43;151892.94;;;6.13;100.00
51287;BME280;37364;46.974;18.916;2024-01-07T09:08:13;151903.25;;;6.17;100.00
51287;BME280;37364;46.974;18.916;2024-01-07T09:10:44;151880.06;;;6.08;100.00
51287;BME280;37364;46.974;18.916;2024-01-07T09:13:16;151814.16;;;5.82;100.00
51287;BME280;37364;46.974;18.916;2024-01-07T09:15:47;151783.22;;;5.69;100.00
51287;BME280;37364;46.974;18.916;2024-01-07T09:18:17;151752.28;;;5.57;100.00
51287;BME280;37364;46.974;18.916;2024-01-07T09:20:47;151747.09;;;5.55;100.00
51287;BME280;37364;46.974;18.916;2024-01-07T09:23:20;151681.28;;;5.29;100.00
51287;BME280;37364;46.974;18.916;2024-01-07T09:25:50;151686.44;;;5.31;100.00
51287;BME280;37364;46.974;18.916;2024-01-07T09:28:23;151659.41;;;5.20;100.00
51287;BME280;37364;46.974;18.916;2024-01-07T09:30:54;151633.63;;;5.10;100.00
51287;BME280;37364;46.974;18.916;2024-01-07T09:33:24;151627.13;;;5.07;100.00
51287;BME280;37364;46.974;18.916;2024-01-07T09:35:54;151600.06;;;4.97;100.00
51287;BME280;37364;46.974;18.916;2024-01-07T09:38:41;151588.44;;;4.92;100.00
51287;BME280;37364;46.974;18.916;2024-01-07T09:41:11;151551.09;;;4.77;100.00
51287;BME280;37364;46.974;18.916;2024-01-07T09:43:45;151554.97;;;4.79;100.00
51287;BME280;37364;46.974;18.916;2024-01-07T09:46:18;151538.16;;;4.72;100.00
51287;BME280;37364;46.974;18.916;2024-01-07T09:48:49;151533.03;;;4.70;100.00
51287;BME280;37364;46.974;18.916;2024-01-07T09:51:22;151534.28;;;4.70;100.00
51287;BME280;37364;46.974;18.916;2024-01-07T09:54:01;151527.88;;;4.68;100.00
51287;BME280;37364;46.974;18.916;2024-01-07T09:56:38;151538.16;;;4.72;100.00
51287;BME280;37364;46.974;18.916;2024-01-07T09:59:12;151522.72;;;4.66;100.00
51287;BME280;37364;46.974;18.916;2024-01-07T10:01:44;151502.09;;;4.58;100.00
51287;BME280;37364;46.974;18.916;2024-01-07T10:04:24;151493.06;;;4.54;100.00
51287;BME280;37364;46.974;18.916;2024-01-07T10:06:58;151473.72;;;4.46;100.00
51287;BME280;37364;46.974;18.916;2024-01-07T10:09:30;151493.06;;;4.54;100.00
51287;BME280;37364;46.974;18.916;2024-01-07T10:12:07;151489.19;;;4.52;100.00
51287;BME280;37364;46.974;18.916;2024-01-07T10:14:45;151477.59;;;4.48;100.00
51287;BME280;37364;46.974;18.916;2024-01-07T10:17:16;151457.00;;;4.40;100.00
51287;BME280;37364;46.974;18.916;2024-01-07T10:20:05;151459.53;;;4.41;100.00
51287;BME280;37364;46.974;18.916;2024-01-07T10:22:37;151433.78;;;4.30;100.00
51287;BME280;37364;46.974;18.916;2024-01-07T10:25:07;151422.19;;;4.26;100.00
51287;BME280;37364;46.974;18.916;2024-01-07T10:27:38;151409.28;;;4.21;100.00
51287;BME280;37364;46.974;18.916;2024-01-07T10:30:12;151418.31;;;4.24;100.00
51287;BME280;37364;46.974;18.916;2024-01-07T10:32:42;151417.06;;;4.24;100.00
51287;BME280;37364;46.974;18.916;2024-01-07T10:35:13;151417.06;;;4.24;100.00
51287;BME280;37364;46.974;18.916;2024-01-07T10:37:44;151402.88;;;4.18;100.00
51287;BME280;37364;46.974;18.916;2024-01-07T10:40:15;151400.25;;;4.17;100.00
51287;BME280;37364;46.974;18.916;2024-01-07T10:42:48;151380.94;;;4.09;100.00
51287;BME280;37364;46.974;18.916;2024-01-07T10:45:29;151378.38;;;4.08;100.00
51287;BME280;37364;46.974;18.916;2024-01-07T10:48:13;151368.06;;;4.04;100.00
51287;BME280;37364;46.974;18.916;2024-01-07T10:50:50;151369.34;;;4.05;100.00
51287;BME280;37364;46.974;18.916;2024-01-07T10:53:27;151317.84;;;3.84;100.00
51287;BME280;37364;46.974;18.916;2024-01-07T10:56:00;151297.19;;;3.76;100.00
51287;BME280;37364;46.974;18.916;2024-01-07T10:58:36;151284.34;;;3.71;100.00
51287;BME280;37364;46.974;18.916;2024-01-07T11:04:14;151274.03;;;3.67;100.00
51287;BME280;37364;46.974;18.916;2024-01-07T11:06:52;151261.16;;;3.62;100.00
51287;BME280;37364;46.974;18.916;2024-01-07T11:09:29;151267.56;;;3.64;100.00
51287;BME280;37364;46.974;18.916;2024-01-07T11:12:01;151228.91;;;3.49;100.00
51287;BME280;37364;46.974;18.916;2024-01-07T11:14:47;151243.09;;;3.54;100.00
51287;BME280;37364;46.974;18.916;2024-01-07T11:17:40;151207.06;;;3.40;100.00
51287;BME280;37364;46.974;18.916;2024-01-07T11:20:17;151210.91;;;3.42;100.00
51287;BME280;37364;46.974;18.916;2024-01-07T11:22:48;151214.78;;;3.43;100.00
51287;BME280;37364;46.974;18.916;2024-01-07T11:25:28;151217.34;;;3.44;100.00
51287;BME280;37364;46.974;18.916;2024-01-07T11:28:02;151208.31;;;3.41;100.00
51287;BME280;37364;46.974;18.916;2024-01-07T11:30:38;151201.91;;;3.38;100.00
51287;BME280;37364;46.974;18.916;2024-01-07T11:33:15;151176.16;;;3.28;100.00
51287;BME280;37364;46.974;18.916;2024-01-07T11:35:55;151186.44;;;3.32;100.00
51287;BME280;37364;46.974;18.916;2024-01-07T11:38:26;151159.38;;;3.21;100.00
51287;BME280;37364;46.974;18.916;2024-01-07T11:40:56;151165.84;;;3.24;100.00
51287;BME280;37364;46.974;18.916;2024-01-07T11:43:26;151181.31;;;3.30;100.00
51287;BME280;37364;46.974;18.916;2024-01-07T11:46:03;151189.00;;;3.33;100.00
51287;BME280;37364;46.974;18.916;2024-01-07T11:48:36;151171.00;;;3.26;100.00
51287;BME280;37364;46.974;18.916;2024-01-07T11:51:07;151152.97;;;3.19;100.00
51287;BME280;37364;46.974;18.916;2024-01-07T11:53:39;151160.72;;;3.22;100.00
51287;BME280;37364;46.974;18.916;2024-01-07T11:56:10;151147.81;;;3.16;100.00
51287;BME280;37364;46.974;18.916;2024-01-07T11:58:51;151149.09;;;3.17;100.00
51287;BME280;37364;46.974;18.916;2024-01-07T12:01:27;151122.06;;;3.06;100.00
51287;BME280;37364;46.974;18.916;2024-01-07T12:04:03;151111.78;;;3.02;100.00
51287;BME280;37364;46.974;18.916;2024-01-07T12:06:38;151134.91;;;3.11;100.00
51287;BME280;37364;46.974;18.916;2024-01-07T12:09:12;61108.31;;;-145.15;100.00
51287;BME280;37364;46.974;18.916;2024-01-07T12:11:45;61108.31;;;-145.15;100.00
51287;BME280;37364;46.974;18.916;2024-01-07T12:14:24;61108.31;;;-145.15;100.00
51287;BME280;37364;46.974;18.916;2024-01-07T12:16:56;61108.31;;;-145.15;100.00
51287;BME280;37364;46.974;18.916;2024-01-07T12:19:31;61108.31;;;-145.15;100.00
51287;BME280;37364;46.974;18.916;2024-01-07T12:22:05;61108.31;;;-145.15;100.00
51287;BME280;37364;46.974;18.916;2024-01-07T12:24:39;61108.31;;;-145.15;100.00
51287;BME280;37364;46.974;18.916;2024-01-07T12:27:10;61108.31;;;-145.15;100.00
51287;BME280;37364;46.974;18.916;2024-01-07T12:29:44;61108.31;;;-145.15;100.00
51287;BME280;37364;46.974;18.916;2024-01-07T12:32:17;61108.31;;;-145.15;100.00
51287;BME280;37364;46.974;18.916;2024-01-07T12:34:53;61108.31;;;-145.15;100.00
51287;BME280;37364;46.974;18.916;2024-01-07T12:37:25;61108.31;;;-145.15;100.00
51287;BME280;37364;46.974;18.916;2024-01-07T12:39:58;61108.31;;;-145.15;100.00
51287;BME280;37364;46.974;18.916;2024-01-07T12:42:31;61108.31;;;-145.15;100.00
51287;BME280;37364;46.974;18.916;2024-01-07T12:45:01;61108.31;;;-145.15;100.00
51287;BME280;37364;46.974;18.916;2024-01-07T12:47:50;61108.31;;;-145.15;100.00
51287;BME280;37364;46.974;18.916;2024-01-07T12:50:25;61108.31;;;-145.15;100.00
51287;BME280;37364;46.974;18.916;2024-01-07T12:52:57;61108.31;;;-145.15;100.00
51287;BME280;37364;46.974;18.916;2024-01-07T12:55:30;61108.31;;;-145.15;100.00
51287;BME280;37364;46.974;18.916;2024-01-07T12:58:12;61108.31;;;-145.15;100.00
51287;BME280;37364;46.974;18.916;2024-01-07T13:00:44;61108.31;;;-145.15;100.00
51287;BME280;37364;46.974;18.916;2024-01-07T13:03:42;61108.31;;;-145.15;100.00
51287;BME280;37364;46.974;18.916;2024-01-07T13:06:33;61108.31;;;-145.15;100.00
51287;BME280;37364;46.974;18.916;2024-01-07T13:09:28;61108.31;;;-145.15;100.00
51287;BME280;37364;46.974;18.916;2024-01-07T13:12:07;61108.31;;;-145.15;100.00
51287;BME280;37364;46.974;18.916;2024-01-07T13:14:54;61108.31;;;-145.15;100.00